sensor_id;sensor_type;location;lat;lon;timestamp;P1;durP1;ratioP1;P2;durP2;ratioP2
63782;SDS011;49925;52.522;5.732;2023-02-28T06:07:40;21.73;;;5.50;;
63782;SDS011;49925;52.522;5.732;2023-02-28T06:10:07;9.55;;;5.20;;
63782;SDS011;49925;52.522;5.732;2023-02-28T06:12:37;13.13;;;5.45;;
63782;SDS011;49925;52.522;5.732;2023-02-28T06:15:04;13.55;;;5.53;;
63782;SDS011;49925;52.522;5.732;2023-02-28T06:17:32;15.00;;;5.90;;
63782;SDS011;49925;52.522;5.732;2023-02-28T06:19:59;11.73;;;5.30;;
63782;SDS011;49925;52.522;5.732;2023-02-28T07:21:25;10.85;;;4.97;;
63782;SDS011;49925;52.522;5.732;2023-02-28T07:26:22;11.88;;;5.80;;
63782;SDS011;49925;52.522;5.732;2023-02-28T07:28:49;13.93;;;6.07;;
63782;SDS011;49925;52.522;5.732;2023-02-28T07:31:17;13.30;;;6.75;;
63782;SDS011;49925;52.522;5.732;2023-02-28T07:33:45;14.90;;;6.57;;
63782;SDS011;49925;52.522;5.732;2023-02-28T07:36:15;10.27;;;5.60;;
63782;SDS011;49925;52.522;5.732;2023-02-28T08:11:01;12.93;;;5.85;;
63782;SDS011;49925;52.522;5.732;2023-02-28T08:13:29;11.25;;;5.70;;
63782;SDS011;49925;52.522;5.732;2023-02-28T08:15:56;15.35;;;5.78;;
63782;SDS011;49925;52.522;5.732;2023-02-28T08:18:24;15.13;;;6.28;;
63782;SDS011;49925;52.522;5.732;2023-02-28T08:20:51;13.93;;;6.95;;
63782;SDS011;49925;52.522;5.732;2023-02-28T08:23:18;22.80;;;7.03;;
63782;SDS011;49925;52.522;5.732;2023-02-28T08:25:52;19.08;;;7.28;;
63782;SDS011;49925;52.522;5.732;2023-02-28T08:28:23;18.63;;;7.47;;
63782;SDS011;49925;52.522;5.732;2023-02-28T08:30:52;17.33;;;6.80;;
63782;SDS011;49925;52.522;5.732;2023-02-28T08:33:21;15.07;;;6.82;;
63782;SDS011;49925;52.522;5.732;2023-02-28T08:35:52;13.68;;;7.00;;
63782;SDS011;49925;52.522;5.732;2023-02-28T08:38:21;14.95;;;6.75;;
63782;SDS011;49925;52.522;5.732;2023-02-28T08:40:49;19.27;;;6.57;;
63782;SDS011;49925;52.522;5.732;2023-02-28T08:43:16;15.90;;;6.70;;
63782;SDS011;49925;52.522;5.732;2023-02-28T08:45:43;11.32;;;5.93;;
63782;SDS011;49925;52.522;5.732;2023-02-28T08:48:10;12.63;;;6.25;;
63782;SDS011;49925;52.522;5.732;2023-02-28T08:50:37;13.93;;;6.38;;
63782;SDS011;49925;52.522;5.732;2023-02-28T08:53:04;19.63;;;6.78;;
63782;SDS011;49925;52.522;5.732;2023-02-28T08:55:34;16.35;;;6.47;;
63782;SDS011;49925;52.522;5.732;2023-02-28T08:58:01;14.02;;;5.97;;
63782;SDS011;49925;52.522;5.732;2023-02-28T09:00:29;19.23;;;6.78;;
63782;SDS011;49925;52.522;5.732;2023-02-28T09:02:56;11.38;;;5.95;;
63782;SDS011;49925;52.522;5.732;2023-02-28T09:05:23;11.20;;;5.40;;
63782;SDS011;49925;52.522;5.732;2023-02-28T09:07:50;10.85;;;5.70;;
63782;SDS011;49925;52.522;5.732;2023-02-28T09:10:17;17.10;;;5.82;;
63782;SDS011;49925;52.522;5.732;2023-02-28T09:12:44;15.70;;;5.57;;
63782;SDS011;49925;52.522;5.732;2023-02-28T09:15:13;12.68;;;5.45;;
63782;SDS011;49925;52.522;5.732;2023-02-28T09:17:40;8.35;;;5.10;;
63782;SDS011;49925;52.522;5.732;2023-02-28T09:20:08;17.40;;;5.60;;
63782;SDS011;49925;52.522;5.732;2023-02-28T09:22:36;15.60;;;5.28;;
63782;SDS011;49925;52.522;5.732;2023-02-28T09:25:03;11.02;;;4.97;;
63782;SDS011;49925;52.522;5.732;2023-02-28T09:27:34;13.95;;;5.50;;
63782;SDS011;49925;52.522;5.732;2023-02-28T09:30:01;12.85;;;5.60;;
63782;SDS011;49925;52.522;5.732;2023-02-28T09:32:29;18.58;;;5.90;;
63782;SDS011;49925;52.522;5.732;2023-02-28T09:34:56;17.23;;;5.40;;
63782;SDS011;49925;52.522;5.732;2023-02-28T09:37:23;16.85;;;6.03;;
63782;SDS011;49925;52.522;5.732;2023-02-28T09:39:50;8.25;;;4.80;;
63782;SDS011;49925;52.522;5.732;2023-02-28T09:42:19;9.45;;;5.05;;
63782;SDS011;49925;52.522;5.732;2023-02-28T09:44:50;11.73;;;4.93;;
63782;SDS011;49925;52.522;5.732;2023-02-28T09:47:33;16.13;;;5.72;;
63782;SDS011;49925;52.522;5.732;2023-02-28T09:50:41;9.90;;;4.43;;
63782;SDS011;49925;52.522;5.732;2023-02-28T09:53:31;16.73;;;5.18;;
63782;SDS011;49925;52.522;5.732;2023-02-28T09:56:03;9.27;;;5.00;;
63782;SDS011;49925;52.522;5.732;2023-02-28T09:58:44;13.02;;;4.97;;
63782;SDS011;49925;52.522;5.732;2023-02-28T10:04:16;23.80;;;5.75;;
63782;SDS011;49925;52.522;5.732;2023-02-28T10:07:16;12.95;;;5.25;;
63782;SDS011;49925;52.522;5.732;2023-02-28T10:10:28;8.55;;;5.20;;
63782;SDS011;49925;52.522;5.732;2023-02-28T10:16:05;9.75;;;5.05;;
63782;SDS011;49925;52.522;5.732;2023-02-28T10:19:15;8.48;;;4.65;;
63782;SDS011;49925;52.522;5.732;2023-02-28T10:21:59;11.88;;;4.90;;
63782;SDS011;49925;52.522;5.732;2023-02-28T10:27:16;9.35;;;4.65;;
63782;SDS011;49925;52.522;5.732;2023-02-28T10:29:47;10.18;;;4.65;;
63782;SDS011;49925;52.522;5.732;2023-02-28T10:32:27;7.55;;;4.63;;
63782;SDS011;49925;52.522;5.732;2023-02-28T10:37:38;7.63;;;4.55;;
63782;SDS011;49925;52.522;5.732;2023-02-28T10:43:02;7.40;;;4.25;;
63782;SDS011;49925;52.522;5.732;2023-02-28T10:45:33;11.25;;;4.70;;
63782;SDS011;49925;52.522;5.732;2023-02-28T10:48:24;8.45;;;4.65;;
63782;SDS011;49925;52.522;5.732;2023-02-28T10:50:57;9.35;;;4.30;;
63782;SDS011;49925;52.522;5.732;2023-02-28T10:53:30;6.22;;;4.25;;
63782;SDS011;49925;52.522;5.732;2023-02-28T10:56:21;7.43;;;3.80;;
63782;SDS011;49925;52.522;5.732;2023-02-28T11:01:36;7.22;;;3.60;;
63782;SDS011;49925;52.522;5.732;2023-02-28T11:04:51;12.52;;;3.90;;
63782;SDS011;49925;52.522;5.732;2023-02-28T11:06:59;10.38;;;3.22;;
63782;SDS011;49925;52.522;5.732;2023-02-28T11:12:02;8.48;;;3.30;;
63782;SDS011;49925;52.522;5.732;2023-02-28T11:14:33;4.63;;;2.87;;
63782;SDS011;49925;52.522;5.732;2023-02-28T11:48:43;10.10;;;3.40;;
63782;SDS011;49925;52.522;5.732;2023-02-28T11:52:10;8.38;;;3.17;;
63782;SDS011;49925;52.522;5.732;2023-02-28T14:07:52;7.78;;;3.33;;
63782;SDS011;49925;52.522;5.732;2023-02-28T14:13:03;6.05;;;3.45;;
63782;SDS011;49925;52.522;5.732;2023-02-28T14:15:44;8.43;;;3.67;;
63782;SDS011;49925;52.522;5.732;2023-02-28T14:22:01;8.25;;;4.07;;
63782;SDS011;49925;52.522;5.732;2023-02-28T14:33:18;16.65;;;4.38;;
63782;SDS011;49925;52.522;5.732;2023-02-28T14:36:04;9.70;;;3.78;;
63782;SDS011;49925;52.522;5.732;2023-02-28T14:38:56;14.32;;;3.90;;
63782;SDS011;49925;52.522;5.732;2023-02-28T14:44:12;5.50;;;3.30;;
63782;SDS011;49925;52.522;5.732;2023-02-28T14:46:52;10.35;;;4.10;;
63782;SDS011;49925;52.522;5.732;2023-02-28T14:49:36;7.15;;;3.70;;
63782;SDS011;49925;52.522;5.732;2023-02-28T14:52:21;6.22;;;3.13;;
63782;SDS011;49925;52.522;5.732;2023-02-28T14:54:54;10.68;;;3.80;;
63782;SDS011;49925;52.522;5.732;2023-02-28T14:57:25;9.40;;;3.83;;
63782;SDS011;49925;52.522;5.732;2023-02-28T15:28:19;6.13;;;3.58;;
63782;SDS011;49925;52.522;5.732;2023-02-28T15:30:55;8.73;;;3.88;;
63782;SDS011;49925;52.522;5.732;2023-02-28T15:33:27;10.07;;;3.97;;
63782;SDS011;49925;52.522;5.732;2023-02-28T15:36:13;14.10;;;3.90;;
63782;SDS011;49925;52.522;5.732;2023-02-28T15:38:51;11.88;;;3.85;;
63782;SDS011;49925;52.522;5.732;2023-02-28T15:41:27;13.40;;;4.18;;
63782;SDS011;49925;52.522;5.732;2023-02-28T17:03:40;16.35;;;5.97;;
63782;SDS011;49925;52.522;5.732;2023-02-28T17:13:49;16.05;;;5.50;;
63782;SDS011;49925;52.522;5.732;2023-02-28T17:21:25;14.38;;;5.28;;
63782;SDS011;49925;52.522;5.732;2023-02-28T17:26:19;10.65;;;5.05;;
63782;SDS011;49925;52.522;5.732;2023-02-28T17:31:14;12.98;;;5.30;;
63782;SDS011;49925;52.522;5.732;2023-02-28T17:33:42;12.43;;;5.75;;
63782;SDS011;49925;52.522;5.732;2023-02-28T17:36:10;11.23;;;6.10;;
63782;SDS011;49925;52.522;5.732;2023-02-28T17:38:41;15.02;;;6.65;;
63782;SDS011;49925;52.522;5.732;2023-02-28T17:41:11;18.23;;;7.47;;
63782;SDS011;49925;52.522;5.732;2023-02-28T17:43:39;20.05;;;8.30;;
63782;SDS011;49925;52.522;5.732;2023-02-28T17:46:17;29.17;;;13.45;;
63782;SDS011;49925;52.522;5.732;2023-02-28T17:48:50;32.03;;;14.50;;
63782;SDS011;49925;52.522;5.732;2023-02-28T17:51:19;27.85;;;13.57;;
63782;SDS011;49925;52.522;5.732;2023-02-28T17:53:48;40.40;;;17.15;;
63782;SDS011;49925;52.522;5.732;2023-02-28T17:56:16;29.25;;;13.07;;
63782;SDS011;49925;52.522;5.732;2023-02-28T17:58:50;17.90;;;8.63;;
63782;SDS011;49925;52.522;5.732;2023-02-28T18:01:20;17.02;;;6.97;;
63782;SDS011;49925;52.522;5.732;2023-02-28T18:03:48;14.07;;;6.30;;
63782;SDS011;49925;52.522;5.732;2023-02-28T18:06:16;11.13;;;6.63;;
63782;SDS011;49925;52.522;5.732;2023-02-28T18:09:17;12.88;;;6.40;;
63782;SDS011;49925;52.522;5.732;2023-02-28T18:11:51;10.27;;;6.18;;
63782;SDS011;49925;52.522;5.732;2023-02-28T18:14:21;14.02;;;7.22;;
63782;SDS011;49925;52.522;5.732;2023-02-28T18:16:51;27.65;;;9.32;;
63782;SDS011;49925;52.522;5.732;2023-02-28T18:19:19;19.40;;;6.90;;
63782;SDS011;49925;52.522;5.732;2023-02-28T18:21:47;12.95;;;6.20;;
63782;SDS011;49925;52.522;5.732;2023-02-28T18:24:20;16.20;;;6.80;;
63782;SDS011;49925;52.522;5.732;2023-02-28T18:26:49;14.02;;;7.35;;
63782;SDS011;49925;52.522;5.732;2023-02-28T18:29:18;19.92;;;6.90;;
63782;SDS011;49925;52.522;5.732;2023-02-28T18:31:47;12.07;;;7.03;;
63782;SDS011;49925;52.522;5.732;2023-02-28T18:34:15;16.10;;;7.20;;
63782;SDS011;49925;52.522;5.732;2023-02-28T18:36:42;19.25;;;8.90;;
63782;SDS011;49925;52.522;5.732;2023-02-28T20:25:49;81.82;;;37.55;;
63782;SDS011;49925;52.522;5.732;2023-02-28T20:28:17;76.72;;;34.45;;
63782;SDS011;49925;52.522;5.732;2023-02-28T20:30:45;50.65;;;23.58;;
63782;SDS011;49925;52.522;5.732;2023-02-28T20:33:17;51.30;;;22.73;;
63782;SDS011;49925;52.522;5.732;2023-02-28T20:35:44;61.47;;;25.00;;
63782;SDS011;49925;52.522;5.732;2023-02-28T20:38:12;52.30;;;23.10;;
63782;SDS011;49925;52.522;5.732;2023-02-28T20:40:39;63.22;;;25.35;;
63782;SDS011;49925;52.522;5.732;2023-02-28T20:43:06;75.03;;;28.38;;
63782;SDS011;49925;52.522;5.732;2023-02-28T20:45:33;64.25;;;28.33;;
63782;SDS011;49925;52.522;5.732;2023-02-28T20:48:01;100.10;;;37.17;;
63782;SDS011;49925;52.522;5.732;2023-02-28T20:50:28;71.43;;;32.50;;
63782;SDS011;49925;52.522;5.732;2023-02-28T20:52:55;77.93;;;34.38;;
63782;SDS011;49925;52.522;5.732;2023-02-28T20:55:22;75.75;;;33.53;;
63782;SDS011;49925;52.522;5.732;2023-02-28T20:57:49;63.47;;;29.77;;
63782;SDS011;49925;52.522;5.732;2023-02-28T21:00:17;49.67;;;21.58;;
63782;SDS011;49925;52.522;5.732;2023-02-28T21:02:44;52.95;;;24.45;;
63782;SDS011;49925;52.522;5.732;2023-02-28T21:05:11;48.83;;;22.70;;
63782;SDS011;49925;52.522;5.732;2023-02-28T21:07:39;74.72;;;28.70;;
63782;SDS011;49925;52.522;5.732;2023-02-28T21:10:06;71.63;;;31.58;;
63782;SDS011;49925;52.522;5.732;2023-02-28T21:12:36;105.53;;;41.50;;
63782;SDS011;49925;52.522;5.732;2023-02-28T21:15:03;97.47;;;38.80;;
63782;SDS011;49925;52.522;5.732;2023-02-28T21:17:34;59.80;;;25.77;;
63782;SDS011;49925;52.522;5.732;2023-02-28T21:20:04;74.40;;;30.10;;
63782;SDS011;49925;52.522;5.732;2023-02-28T21:22:32;75.50;;;28.13;;
63782;SDS011;49925;52.522;5.732;2023-02-28T21:25:01;75.18;;;30.67;;
63782;SDS011;49925;52.522;5.732;2023-02-28T21:27:28;47.53;;;21.75;;
63782;SDS011;49925;52.522;5.732;2023-02-28T21:29:55;34.92;;;17.23;;
63782;SDS011;49925;52.522;5.732;2023-02-28T21:32:22;37.67;;;18.77;;
63782;SDS011;49925;52.522;5.732;2023-02-28T21:34:49;39.03;;;16.73;;
63782;SDS011;49925;52.522;5.732;2023-02-28T23:16:39;37.50;;;17.80;;
63782;SDS011;49925;52.522;5.732;2023-02-28T23:19:15;49.75;;;23.02;;
